sensor_id;sensor_type;location;lat;lon;timestamp;P1;durP1;ratioP1;P2;durP2;ratioP2
48205;SDS011;33995;48.202;16.260;2023-01-29T00:01:54;10.03;;;9.03;;
48205;SDS011;33995;48.202;16.260;2023-01-29T00:04:22;11.43;;;9.90;;
48205;SDS011;33995;48.202;16.260;2023-01-29T00:06:49;10.10;;;9.00;;
48205;SDS011;33995;48.202;16.260;2023-01-29T00:09:16;9.70;;;8.50;;
48205;SDS011;33995;48.202;16.260;2023-01-29T00:11:44;11.13;;;9.33;;
48205;SDS011;33995;48.202;16.260;2023-01-29T00:14:11;10.43;;;8.97;;
48205;SDS011;33995;48.202;16.260;2023-01-29T00:16:38;10.37;;;8.60;;
48205;SDS011;33995;48.202;16.260;2023-01-29T00:19:06;9.40;;;8.40;;
48205;SDS011;33995;48.202;16.260;2023-01-29T00:21:33;9.50;;;8.50;;
48205;SDS011;33995;48.202;16.260;2023-01-29T00:24:00;9.73;;;8.50;;
48205;SDS011;33995;48.202;16.260;2023-01-29T00:26:27;8.90;;;8.00;;
48205;SDS011;33995;48.202;16.260;2023-01-29T00:28:55;9.87;;;8.27;;
48205;SDS011;33995;48.202;16.260;2023-01-29T00:31:28;10.17;;;8.57;;
48205;SDS011;33995;48.202;16.260;2023-01-29T00:33:55;9.60;;;8.43;;
48205;SDS011;33995;48.202;16.260;2023-01-29T00:36:23;10.17;;;8.47;;
48205;SDS011;33995;48.202;16.260;2023-01-29T00:38:55;10.07;;;8.43;;
48205;SDS011;33995;48.202;16.260;2023-01-29T00:41:26;8.73;;;7.43;;
48205;SDS011;33995;48.202;16.260;2023-01-29T00:44:16;9.70;;;8.17;;
48205;SDS011;33995;48.202;16.260;2023-01-29T00:47:02;9.83;;;8.00;;
48205;SDS011;33995;48.202;16.260;2023-01-29T00:49:30;10.33;;;8.30;;
48205;SDS011;33995;48.202;16.260;2023-01-29T00:51:57;8.67;;;7.77;;
48205;SDS011;33995;48.202;16.260;2023-01-29T00:54:42;8.53;;;7.60;;
48205;SDS011;33995;48.202;16.260;2023-01-29T00:57:09;8.27;;;7.13;;
48205;SDS011;33995;48.202;16.260;2023-01-29T00:59:36;9.40;;;7.63;;
48205;SDS011;33995;48.202;16.260;2023-01-29T01:02:03;8.20;;;7.40;;
48205;SDS011;33995;48.202;16.260;2023-01-29T01:04:49;8.03;;;7.23;;
48205;SDS011;33995;48.202;16.260;2023-01-29T01:07:16;8.30;;;7.20;;
48205;SDS011;33995;48.202;16.260;2023-01-29T01:09:44;7.57;;;6.77;;
48205;SDS011;33995;48.202;16.260;2023-01-29T01:12:30;8.10;;;7.03;;
48205;SDS011;33995;48.202;16.260;2023-01-29T01:14:57;8.63;;;6.90;;
48205;SDS011;33995;48.202;16.260;2023-01-29T01:17:25;8.33;;;7.20;;
48205;SDS011;33995;48.202;16.260;2023-01-29T01:19:52;8.40;;;7.07;;
48205;SDS011;33995;48.202;16.260;2023-01-29T01:22:20;8.30;;;7.13;;
48205;SDS011;33995;48.202;16.260;2023-01-29T01:24:47;9.50;;;7.70;;
48205;SDS011;33995;48.202;16.260;2023-01-29T01:27:15;8.57;;;7.13;;
48205;SDS011;33995;48.202;16.260;2023-01-29T01:29:43;8.50;;;6.93;;
48205;SDS011;33995;48.202;16.260;2023-01-29T01:32:11;7.93;;;7.07;;
48205;SDS011;33995;48.202;16.260;2023-01-29T01:34:38;8.23;;;7.03;;
48205;SDS011;33995;48.202;16.260;2023-01-29T01:37:06;8.33;;;7.23;;
48205;SDS011;33995;48.202;16.260;2023-01-29T01:39:33;8.33;;;7.13;;
48205;SDS011;33995;48.202;16.260;2023-01-29T01:42:01;7.67;;;6.73;;
48205;SDS011;33995;48.202;16.260;2023-01-29T01:47:32;8.43;;;7.40;;
48205;SDS011;33995;48.202;16.260;2023-01-29T01:50:08;7.27;;;6.50;;
48205;SDS011;33995;48.202;16.260;2023-01-29T01:52:42;7.77;;;6.97;;
48205;SDS011;33995;48.202;16.260;2023-01-29T01:55:13;7.90;;;6.73;;
48205;SDS011;33995;48.202;16.260;2023-01-29T01:57:44;7.57;;;6.50;;
48205;SDS011;33995;48.202;16.260;2023-01-29T02:00:18;7.73;;;6.90;;
48205;SDS011;33995;48.202;16.260;2023-01-29T02:02:46;7.70;;;6.87;;
48205;SDS011;33995;48.202;16.260;2023-01-29T02:05:35;8.57;;;6.83;;
48205;SDS011;33995;48.202;16.260;2023-01-29T02:08:26;8.27;;;6.70;;
48205;SDS011;33995;48.202;16.260;2023-01-29T02:11:24;7.50;;;6.70;;
48205;SDS011;33995;48.202;16.260;2023-01-29T02:13:51;8.27;;;7.03;;
48205;SDS011;33995;48.202;16.260;2023-01-29T02:16:23;8.13;;;6.53;;
48205;SDS011;33995;48.202;16.260;2023-01-29T02:18:50;7.80;;;6.50;;
48205;SDS011;33995;48.202;16.260;2023-01-29T02:24:30;7.67;;;6.67;;
48205;SDS011;33995;48.202;16.260;2023-01-29T02:27:20;7.23;;;6.43;;
48205;SDS011;33995;48.202;16.260;2023-01-29T02:30:02;7.37;;;6.63;;
48205;SDS011;33995;48.202;16.260;2023-01-29T02:32:41;8.97;;;6.90;;
48205;SDS011;33995;48.202;16.260;2023-01-29T02:35:28;7.43;;;6.60;;
48205;SDS011;33995;48.202;16.260;2023-01-29T02:40:52;8.17;;;6.87;;
48205;SDS011;33995;48.202;16.260;2023-01-29T02:43:28;8.30;;;7.00;;
48205;SDS011;33995;48.202;16.260;2023-01-29T02:46:14;7.83;;;6.70;;
48205;SDS011;33995;48.202;16.260;2023-01-29T02:48:54;7.87;;;6.77;;
48205;SDS011;33995;48.202;16.260;2023-01-29T02:51:37;7.63;;;6.50;;
48205;SDS011;33995;48.202;16.260;2023-01-29T02:54:24;8.03;;;6.80;;
48205;SDS011;33995;48.202;16.260;2023-01-29T02:57:18;7.57;;;6.77;;
48205;SDS011;33995;48.202;16.260;2023-01-29T02:59:56;8.03;;;6.67;;
48205;SDS011;33995;48.202;16.260;2023-01-29T03:02:30;7.53;;;6.73;;
48205;SDS011;33995;48.202;16.260;2023-01-29T03:05:02;8.03;;;6.60;;
48205;SDS011;33995;48.202;16.260;2023-01-29T03:07:39;7.77;;;6.50;;
48205;SDS011;33995;48.202;16.260;2023-01-29T03:12:59;7.60;;;6.37;;
48205;SDS011;33995;48.202;16.260;2023-01-29T03:15:47;7.20;;;6.13;;
48205;SDS011;33995;48.202;16.260;2023-01-29T03:18:41;8.00;;;6.73;;
48205;SDS011;33995;48.202;16.260;2023-01-29T03:21:24;7.97;;;6.60;;
48205;SDS011;33995;48.202;16.260;2023-01-29T03:24:15;7.60;;;6.40;;
48205;SDS011;33995;48.202;16.260;2023-01-29T03:27:19;7.03;;;6.30;;
48205;SDS011;33995;48.202;16.260;2023-01-29T03:30:08;7.17;;;6.47;;
48205;SDS011;33995;48.202;16.260;2023-01-29T03:33:06;6.90;;;6.10;;
48205;SDS011;33995;48.202;16.260;2023-01-29T03:35:37;6.60;;;5.90;;
48205;SDS011;33995;48.202;16.260;2023-01-29T03:38:10;7.10;;;6.37;;
48205;SDS011;33995;48.202;16.260;2023-01-29T03:43:13;7.43;;;6.50;;
48205;SDS011;33995;48.202;16.260;2023-01-29T03:46:04;8.40;;;6.93;;
48205;SDS011;33995;48.202;16.260;2023-01-29T03:48:38;8.63;;;6.80;;
48205;SDS011;33995;48.202;16.260;2023-01-29T03:54:07;7.50;;;6.60;;
48205;SDS011;33995;48.202;16.260;2023-01-29T04:02:12;7.73;;;6.60;;
48205;SDS011;33995;48.202;16.260;2023-01-29T04:04:45;7.37;;;6.67;;
48205;SDS011;33995;48.202;16.260;2023-01-29T04:07:19;7.93;;;6.70;;
48205;SDS011;33995;48.202;16.260;2023-01-29T04:10:01;7.47;;;6.20;;
48205;SDS011;33995;48.202;16.260;2023-01-29T04:12:39;8.13;;;7.00;;
48205;SDS011;33995;48.202;16.260;2023-01-29T04:15:15;7.13;;;6.43;;
48205;SDS011;33995;48.202;16.260;2023-01-29T04:17:49;7.73;;;6.40;;
48205;SDS011;33995;48.202;16.260;2023-01-29T04:20:25;6.97;;;6.13;;
48205;SDS011;33995;48.202;16.260;2023-01-29T04:22:53;7.07;;;6.20;;
48205;SDS011;33995;48.202;16.260;2023-01-29T04:25:24;7.00;;;6.30;;
48205;SDS011;33995;48.202;16.260;2023-01-29T04:30:46;6.73;;;6.03;;
48205;SDS011;33995;48.202;16.260;2023-01-29T04:33:32;6.70;;;6.00;;
48205;SDS011;33995;48.202;16.260;2023-01-29T04:47:46;8.00;;;6.40;;
48205;SDS011;33995;48.202;16.260;2023-01-29T04:50:28;7.13;;;5.73;;
48205;SDS011;33995;48.202;16.260;2023-01-29T04:55:50;6.40;;;5.80;;
48205;SDS011;33995;48.202;16.260;2023-01-29T04:58:34;6.53;;;5.87;;
48205;SDS011;33995;48.202;16.260;2023-01-29T05:01:12;6.70;;;6.00;;
48205;SDS011;33995;48.202;16.260;2023-01-29T05:03:42;7.83;;;5.93;;
48205;SDS011;33995;48.202;16.260;2023-01-29T05:06:15;7.00;;;6.27;;
48205;SDS011;33995;48.202;16.260;2023-01-29T05:08:44;6.50;;;5.90;;
48205;SDS011;33995;48.202;16.260;2023-01-29T05:11:13;6.80;;;5.93;;
48205;SDS011;33995;48.202;16.260;2023-01-29T05:13:43;6.37;;;5.73;;
48205;SDS011;33995;48.202;16.260;2023-01-29T05:16:14;6.70;;;6.00;;
48205;SDS011;33995;48.202;16.260;2023-01-29T05:18:47;7.57;;;6.20;;
48205;SDS011;33995;48.202;16.260;2023-01-29T05:21:14;6.77;;;6.07;;
48205;SDS011;33995;48.202;16.260;2023-01-29T05:23:42;7.53;;;6.33;;
48205;SDS011;33995;48.202;16.260;2023-01-29T05:26:23;7.30;;;6.23;;
48205;SDS011;33995;48.202;16.260;2023-01-29T05:29:09;6.80;;;6.17;;
48205;SDS011;33995;48.202;16.260;2023-01-29T05:31:37;6.97;;;6.10;;
48205;SDS011;33995;48.202;16.260;2023-01-29T05:34:04;10.13;;;7.80;;
48205;SDS011;33995;48.202;16.260;2023-01-29T05:36:31;17.20;;;10.77;;
48205;SDS011;33995;48.202;16.260;2023-01-29T05:38:58;14.27;;;10.13;;
48205;SDS011;33995;48.202;16.260;2023-01-29T05:41:25;13.00;;;9.00;;
48205;SDS011;33995;48.202;16.260;2023-01-29T05:43:52;7.67;;;6.57;;
48205;SDS011;33995;48.202;16.260;2023-01-29T05:46:19;11.23;;;8.33;;
48205;SDS011;33995;48.202;16.260;2023-01-29T05:48:46;10.30;;;8.33;;
48205;SDS011;33995;48.202;16.260;2023-01-29T05:51:13;8.23;;;7.20;;
48205;SDS011;33995;48.202;16.260;2023-01-29T05:53:40;8.47;;;7.17;;
48205;SDS011;33995;48.202;16.260;2023-01-29T05:56:07;9.00;;;7.07;;
48205;SDS011;33995;48.202;16.260;2023-01-29T05:58:34;7.93;;;7.00;;
48205;SDS011;33995;48.202;16.260;2023-01-29T06:01:12;7.57;;;6.77;;
48205;SDS011;33995;48.202;16.260;2023-01-29T06:03:44;7.83;;;6.93;;
48205;SDS011;33995;48.202;16.260;2023-01-29T06:06:12;7.27;;;6.57;;
48205;SDS011;33995;48.202;16.260;2023-01-29T06:08:41;7.33;;;6.63;;
48205;SDS011;33995;48.202;16.260;2023-01-29T06:11:09;7.40;;;6.63;;
48205;SDS011;33995;48.202;16.260;2023-01-29T06:13:37;7.40;;;6.60;;
48205;SDS011;33995;48.202;16.260;2023-01-29T06:16:05;8.03;;;6.73;;
48205;SDS011;33995;48.202;16.260;2023-01-29T06:18:37;7.57;;;6.50;;
48205;SDS011;33995;48.202;16.260;2023-01-29T06:21:05;8.23;;;7.30;;
48205;SDS011;33995;48.202;16.260;2023-01-29T06:23:33;7.43;;;6.50;;
48205;SDS011;33995;48.202;16.260;2023-01-29T06:26:01;7.03;;;6.33;;
48205;SDS011;33995;48.202;16.260;2023-01-29T06:28:30;7.23;;;6.50;;
48205;SDS011;33995;48.202;16.260;2023-01-29T06:30:57;7.53;;;6.53;;
48205;SDS011;33995;48.202;16.260;2023-01-29T06:33:37;6.87;;;6.17;;
48205;SDS011;33995;48.202;16.260;2023-01-29T06:36:08;6.90;;;6.20;;
48205;SDS011;33995;48.202;16.260;2023-01-29T06:38:36;7.70;;;6.70;;
48205;SDS011;33995;48.202;16.260;2023-01-29T06:41:12;8.00;;;6.70;;
48205;SDS011;33995;48.202;16.260;2023-01-29T06:43:42;7.33;;;6.53;;
48205;SDS011;33995;48.202;16.260;2023-01-29T06:46:10;7.03;;;6.33;;
48205;SDS011;33995;48.202;16.260;2023-01-29T06:48:37;8.07;;;6.80;;
48205;SDS011;33995;48.202;16.260;2023-01-29T06:51:05;7.17;;;6.47;;
48205;SDS011;33995;48.202;16.260;2023-01-29T06:53:34;7.90;;;6.37;;
48205;SDS011;33995;48.202;16.260;2023-01-29T06:56:02;7.33;;;6.57;;
48205;SDS011;33995;48.202;16.260;2023-01-29T06:58:30;7.23;;;6.53;;
48205;SDS011;33995;48.202;16.260;2023-01-29T07:03:35;7.67;;;6.83;;
48205;SDS011;33995;48.202;16.260;2023-01-29T07:06:03;7.87;;;7.03;;
48205;SDS011;33995;48.202;16.260;2023-01-29T07:08:32;8.37;;;7.00;;
48205;SDS011;33995;48.202;16.260;2023-01-29T07:11:03;7.40;;;6.70;;
48205;SDS011;33995;48.202;16.260;2023-01-29T07:13:30;8.57;;;7.00;;
48205;SDS011;33995;48.202;16.260;2023-01-29T07:16:00;8.00;;;7.17;;
48205;SDS011;33995;48.202;16.260;2023-01-29T07:18:29;7.37;;;6.67;;
48205;SDS011;33995;48.202;16.260;2023-01-29T07:20:56;7.60;;;6.80;;
48205;SDS011;33995;48.202;16.260;2023-01-29T07:23:24;7.83;;;7.03;;
48205;SDS011;33995;48.202;16.260;2023-01-29T07:25:51;8.87;;;7.30;;
48205;SDS011;33995;48.202;16.260;2023-01-29T07:28:18;7.83;;;7.03;;
48205;SDS011;33995;48.202;16.260;2023-01-29T07:30:48;8.87;;;7.77;;
48205;SDS011;33995;48.202;16.260;2023-01-29T07:33:15;8.63;;;7.67;;
48205;SDS011;33995;48.202;16.260;2023-01-29T07:35:42;9.87;;;7.97;;
48205;SDS011;33995;48.202;16.260;2023-01-29T07:38:09;8.70;;;7.80;;
48205;SDS011;33995;48.202;16.260;2023-01-29T07:40:40;8.90;;;8.00;;
48205;SDS011;33995;48.202;16.260;2023-01-29T07:43:07;8.87;;;7.87;;
48205;SDS011;33995;48.202;16.260;2023-01-29T07:45:37;8.77;;;7.87;;
48205;SDS011;33995;48.202;16.260;2023-01-29T07:48:06;9.13;;;7.80;;
48205;SDS011;33995;48.202;16.260;2023-01-29T07:50:35;9.73;;;8.70;;
48205;SDS011;33995;48.202;16.260;2023-01-29T07:53:02;9.87;;;8.50;;
48205;SDS011;33995;48.202;16.260;2023-01-29T07:55:29;10.97;;;9.70;;
48205;SDS011;33995;48.202;16.260;2023-01-29T07:57:57;11.53;;;9.90;;
48205;SDS011;33995;48.202;16.260;2023-01-29T08:00:26;11.20;;;8.67;;
48205;SDS011;33995;48.202;16.260;2023-01-29T08:03:00;11.13;;;9.73;;
48205;SDS011;33995;48.202;16.260;2023-01-29T08:05:28;11.97;;;10.53;;
48205;SDS011;33995;48.202;16.260;2023-01-29T08:07:55;10.07;;;9.00;;
48205;SDS011;33995;48.202;16.260;2023-01-29T08:10:33;13.20;;;11.00;;
48205;SDS011;33995;48.202;16.260;2023-01-29T08:13:00;21.53;;;16.87;;
48205;SDS011;33995;48.202;16.260;2023-01-29T08:15:28;12.17;;;10.50;;
48205;SDS011;33995;48.202;16.260;2023-01-29T08:17:55;10.23;;;9.03;;
48205;SDS011;33995;48.202;16.260;2023-01-29T08:20:24;8.93;;;8.03;;
48205;SDS011;33995;48.202;16.260;2023-01-29T08:23:01;15.43;;;13.30;;
48205;SDS011;33995;48.202;16.260;2023-01-29T08:25:30;13.57;;;10.77;;
48205;SDS011;33995;48.202;16.260;2023-01-29T08:27:58;10.67;;;9.30;;
48205;SDS011;33995;48.202;16.260;2023-01-29T08:30:26;8.80;;;7.90;;
48205;SDS011;33995;48.202;16.260;2023-01-29T08:32:55;9.40;;;7.60;;
48205;SDS011;33995;48.202;16.260;2023-01-29T08:35:23;9.40;;;8.40;;
48205;SDS011;33995;48.202;16.260;2023-01-29T08:37:53;8.40;;;7.50;;
48205;SDS011;33995;48.202;16.260;2023-01-29T08:40:28;9.33;;;8.33;;
48205;SDS011;33995;48.202;16.260;2023-01-29T08:42:57;10.20;;;9.20;;
48205;SDS011;33995;48.202;16.260;2023-01-29T08:45:34;8.83;;;7.87;;
48205;SDS011;33995;48.202;16.260;2023-01-29T08:48:03;9.67;;;8.63;;
48205;SDS011;33995;48.202;16.260;2023-01-29T08:50:30;14.90;;;13.00;;
48205;SDS011;33995;48.202;16.260;2023-01-29T08:53:00;9.00;;;8.10;;
48205;SDS011;33995;48.202;16.260;2023-01-29T08:55:29;12.20;;;11.00;;
48205;SDS011;33995;48.202;16.260;2023-01-29T08:57:56;10.33;;;9.23;;
48205;SDS011;33995;48.202;16.260;2023-01-29T09:00:24;9.60;;;8.60;;
48205;SDS011;33995;48.202;16.260;2023-01-29T09:02:51;8.90;;;7.97;;
48205;SDS011;33995;48.202;16.260;2023-01-29T09:05:21;9.90;;;8.90;;
48205;SDS011;33995;48.202;16.260;2023-01-29T09:07:48;9.37;;;8.47;;
48205;SDS011;33995;48.202;16.260;2023-01-29T09:10:15;10.20;;;9.10;;
48205;SDS011;33995;48.202;16.260;2023-01-29T09:12:42;9.93;;;8.93;;
48205;SDS011;33995;48.202;16.260;2023-01-29T09:15:10;9.27;;;8.27;;
48205;SDS011;33995;48.202;16.260;2023-01-29T09:17:37;12.20;;;10.90;;
48205;SDS011;33995;48.202;16.260;2023-01-29T09:20:04;12.23;;;10.93;;
48205;SDS011;33995;48.202;16.260;2023-01-29T09:22:31;9.30;;;8.30;;
48205;SDS011;33995;48.202;16.260;2023-01-29T09:24:59;10.97;;;9.60;;
48205;SDS011;33995;48.202;16.260;2023-01-29T09:27:26;12.57;;;10.37;;
48205;SDS011;33995;48.202;16.260;2023-01-29T09:29:53;10.63;;;9.30;;
48205;SDS011;33995;48.202;16.260;2023-01-29T09:32:20;9.83;;;8.83;;
48205;SDS011;33995;48.202;16.260;2023-01-29T09:35:07;11.13;;;10.03;;
48205;SDS011;33995;48.202;16.260;2023-01-29T09:37:34;10.50;;;9.50;;
48205;SDS011;33995;48.202;16.260;2023-01-29T09:40:01;9.17;;;8.27;;
48205;SDS011;33995;48.202;16.260;2023-01-29T09:42:30;10.93;;;9.93;;
48205;SDS011;33995;48.202;16.260;2023-01-29T09:47:46;11.07;;;9.97;;
48205;SDS011;33995;48.202;16.260;2023-01-29T09:50:16;10.77;;;9.17;;
48205;SDS011;33995;48.202;16.260;2023-01-29T09:52:52;9.90;;;8.90;;
48205;SDS011;33995;48.202;16.260;2023-01-29T09:55:41;8.87;;;7.97;;
48205;SDS011;33995;48.202;16.260;2023-01-29T09:58:26;9.27;;;8.27;;
48205;SDS011;33995;48.202;16.260;2023-01-29T10:09:28;11.00;;;9.30;;
48205;SDS011;33995;48.202;16.260;2023-01-29T10:15:17;11.07;;;8.67;;
48205;SDS011;33995;48.202;16.260;2023-01-29T10:23:52;11.60;;;10.43;;
48205;SDS011;33995;48.202;16.260;2023-01-29T10:26:29;9.83;;;8.83;;
48205;SDS011;33995;48.202;16.260;2023-01-29T10:28:58;10.93;;;9.83;;
48205;SDS011;33995;48.202;16.260;2023-01-29T10:31:31;10.80;;;9.70;;
48205;SDS011;33995;48.202;16.260;2023-01-29T10:34:13;10.10;;;9.10;;
48205;SDS011;33995;48.202;16.260;2023-01-29T10:36:50;10.27;;;9.17;;
48205;SDS011;33995;48.202;16.260;2023-01-29T10:39:20;11.20;;;10.03;;
48205;SDS011;33995;48.202;16.260;2023-01-29T10:55:45;11.87;;;10.67;;
48205;SDS011;33995;48.202;16.260;2023-01-29T10:58:49;10.23;;;9.17;;
48205;SDS011;33995;48.202;16.260;2023-01-29T11:01:20;10.67;;;9.57;;
48205;SDS011;33995;48.202;16.260;2023-01-29T11:04:00;9.90;;;8.90;;
48205;SDS011;33995;48.202;16.260;2023-01-29T11:06:30;10.63;;;9.53;;
48205;SDS011;33995;48.202;16.260;2023-01-29T11:11:50;12.03;;;10.93;;
48205;SDS011;33995;48.202;16.260;2023-01-29T11:14:28;12.40;;;11.13;;
48205;SDS011;33995;48.202;16.260;2023-01-29T11:17:19;10.73;;;9.73;;
48205;SDS011;33995;48.202;16.260;2023-01-29T11:19:49;11.03;;;9.93;;
48205;SDS011;33995;48.202;16.260;2023-01-29T11:22:24;10.90;;;9.77;;
48205;SDS011;33995;48.202;16.260;2023-01-29T11:27:44;10.53;;;9.50;;
48205;SDS011;33995;48.202;16.260;2023-01-29T11:30:47;9.90;;;8.77;;
48205;SDS011;33995;48.202;16.260;2023-01-29T11:33:37;10.23;;;9.33;;
48205;SDS011;33995;48.202;16.260;2023-01-29T11:36:33;10.70;;;9.60;;
48205;SDS011;33995;48.202;16.260;2023-01-29T11:39:26;10.40;;;9.40;;
48205;SDS011;33995;48.202;16.260;2023-01-29T11:42:21;11.73;;;10.53;;
48205;SDS011;33995;48.202;16.260;2023-01-29T11:45:28;10.33;;;9.43;;
48205;SDS011;33995;48.202;16.260;2023-01-29T11:48:23;9.90;;;8.93;;
48205;SDS011;33995;48.202;16.260;2023-01-29T11:51:22;9.80;;;9.00;;
48205;SDS011;33995;48.202;16.260;2023-01-29T11:54:15;10.70;;;9.80;;
48205;SDS011;33995;48.202;16.260;2023-01-29T11:57:15;10.73;;;9.83;;
48205;SDS011;33995;48.202;16.260;2023-01-29T12:00:21;9.80;;;8.90;;
48205;SDS011;33995;48.202;16.260;2023-01-29T12:03:15;9.67;;;8.87;;
48205;SDS011;33995;48.202;16.260;2023-01-29T12:06:34;9.60;;;8.80;;
48205;SDS011;33995;48.202;16.260;2023-01-29T12:09:26;9.80;;;9.00;;
48205;SDS011;33995;48.202;16.260;2023-01-29T12:11:59;9.67;;;8.87;;
48205;SDS011;33995;48.202;16.260;2023-01-29T12:14:43;10.40;;;9.50;;
48205;SDS011;33995;48.202;16.260;2023-01-29T12:17:20;10.33;;;9.50;;
48205;SDS011;33995;48.202;16.260;2023-01-29T12:19:53;9.80;;;9.00;;
48205;SDS011;33995;48.202;16.260;2023-01-29T12:25:21;9.47;;;8.77;;
48205;SDS011;33995;48.202;16.260;2023-01-29T12:36:23;10.30;;;9.50;;
48205;SDS011;33995;48.202;16.260;2023-01-29T12:39:00;10.07;;;9.27;;
48205;SDS011;33995;48.202;16.260;2023-01-29T12:41:39;11.23;;;10.33;;
48205;SDS011;33995;48.202;16.260;2023-01-29T12:44:15;11.00;;;10.10;;
48205;SDS011;33995;48.202;16.260;2023-01-29T12:47:26;11.07;;;10.17;;
48205;SDS011;33995;48.202;16.260;2023-01-29T12:52:57;12.00;;;11.00;;
48205;SDS011;33995;48.202;16.260;2023-01-29T12:55:37;12.10;;;11.10;;
48205;SDS011;33995;48.202;16.260;2023-01-29T12:58:15;12.70;;;11.60;;
48205;SDS011;33995;48.202;16.260;2023-01-29T13:00:59;12.60;;;11.50;;
48205;SDS011;33995;48.202;16.260;2023-01-29T13:06:35;13.20;;;12.10;;
48205;SDS011;33995;48.202;16.260;2023-01-29T13:09:10;13.37;;;12.17;;
48205;SDS011;33995;48.202;16.260;2023-01-29T13:20:12;14.00;;;12.70;;
48205;SDS011;33995;48.202;16.260;2023-01-29T13:22:45;14.23;;;12.93;;
48205;SDS011;33995;48.202;16.260;2023-01-29T13:25:14;14.33;;;13.03;;
48205;SDS011;33995;48.202;16.260;2023-01-29T13:27:44;14.23;;;12.93;;
48205;SDS011;33995;48.202;16.260;2023-01-29T13:30:47;13.80;;;12.47;;
48205;SDS011;33995;48.202;16.260;2023-01-29T13:33:14;13.57;;;12.27;;
48205;SDS011;33995;48.202;16.260;2023-01-29T13:35:51;12.60;;;11.40;;
48205;SDS011;33995;48.202;16.260;2023-01-29T13:38:29;13.07;;;11.87;;
48205;SDS011;33995;48.202;16.260;2023-01-29T13:40:59;13.03;;;11.83;;
48205;SDS011;33995;48.202;16.260;2023-01-29T13:43:33;13.03;;;11.77;;
48205;SDS011;33995;48.202;16.260;2023-01-29T13:46:11;12.80;;;11.50;;
48205;SDS011;33995;48.202;16.260;2023-01-29T13:48:44;13.13;;;11.80;;
48205;SDS011;33995;48.202;16.260;2023-01-29T13:51:15;12.50;;;11.40;;
48205;SDS011;33995;48.202;16.260;2023-01-29T13:53:53;12.50;;;11.30;;
48205;SDS011;33995;48.202;16.260;2023-01-29T13:56:57;12.43;;;11.33;;
48205;SDS011;33995;48.202;16.260;2023-01-29T13:59:51;12.67;;;11.47;;
48205;SDS011;33995;48.202;16.260;2023-01-29T14:02:41;12.67;;;11.47;;
48205;SDS011;33995;48.202;16.260;2023-01-29T14:11:33;13.23;;;11.87;;
48205;SDS011;33995;48.202;16.260;2023-01-29T14:17:34;12.70;;;11.40;;
48205;SDS011;33995;48.202;16.260;2023-01-29T14:20:23;13.67;;;11.40;;
48205;SDS011;33995;48.202;16.260;2023-01-29T14:31:59;14.40;;;12.90;;
48205;SDS011;33995;48.202;16.260;2023-01-29T14:39:44;13.30;;;11.50;;
48205;SDS011;33995;48.202;16.260;2023-01-29T14:45:30;13.60;;;12.20;;
48205;SDS011;33995;48.202;16.260;2023-01-29T14:47:59;14.90;;;13.20;;
48205;SDS011;33995;48.202;16.260;2023-01-29T14:56:03;13.20;;;11.80;;
48205;SDS011;33995;48.202;16.260;2023-01-29T14:59:10;14.47;;;12.13;;
48205;SDS011;33995;48.202;16.260;2023-01-29T15:05:26;13.53;;;12.13;;
48205;SDS011;33995;48.202;16.260;2023-01-29T15:11:39;15.50;;;12.60;;
48205;SDS011;33995;48.202;16.260;2023-01-29T15:14:42;15.10;;;12.57;;
48205;SDS011;33995;48.202;16.260;2023-01-29T15:18:22;13.63;;;11.67;;
48205;SDS011;33995;48.202;16.260;2023-01-29T15:21:10;14.83;;;11.60;;
48205;SDS011;33995;48.202;16.260;2023-01-29T15:24:05;15.77;;;12.87;;
48205;SDS011;33995;48.202;16.260;2023-01-29T15:26:33;12.67;;;11.03;;
48205;SDS011;33995;48.202;16.260;2023-01-29T15:29:02;13.60;;;11.77;;
48205;SDS011;33995;48.202;16.260;2023-01-29T15:31:31;12.03;;;10.83;;
48205;SDS011;33995;48.202;16.260;2023-01-29T15:34:01;12.37;;;11.03;;
48205;SDS011;33995;48.202;16.260;2023-01-29T15:36:32;13.83;;;11.90;;
48205;SDS011;33995;48.202;16.260;2023-01-29T15:41:42;13.27;;;11.53;;
48205;SDS011;33995;48.202;16.260;2023-01-29T15:44:14;12.80;;;11.20;;
48205;SDS011;33995;48.202;16.260;2023-01-29T15:46:55;12.83;;;11.33;;
48205;SDS011;33995;48.202;16.260;2023-01-29T15:49:34;13.57;;;11.70;;
48205;SDS011;33995;48.202;16.260;2023-01-29T15:52:05;13.30;;;11.73;;
48205;SDS011;33995;48.202;16.260;2023-01-29T15:54:39;11.67;;;10.47;;
48205;SDS011;33995;48.202;16.260;2023-01-29T15:57:12;12.33;;;10.80;;
48205;SDS011;33995;48.202;16.260;2023-01-29T15:59:52;11.53;;;10.27;;
48205;SDS011;33995;48.202;16.260;2023-01-29T16:02:41;11.67;;;10.00;;
48205;SDS011;33995;48.202;16.260;2023-01-29T16:05:28;12.30;;;11.00;;
48205;SDS011;33995;48.202;16.260;2023-01-29T16:08:20;13.63;;;11.77;;
48205;SDS011;33995;48.202;16.260;2023-01-29T16:11:09;14.10;;;12.50;;
48205;SDS011;33995;48.202;16.260;2023-01-29T16:13:58;15.30;;;13.20;;
48205;SDS011;33995;48.202;16.260;2023-01-29T16:16:50;15.83;;;14.07;;
48205;SDS011;33995;48.202;16.260;2023-01-29T16:19:39;14.13;;;12.40;;
48205;SDS011;33995;48.202;16.260;2023-01-29T16:22:33;15.50;;;13.30;;
48205;SDS011;33995;48.202;16.260;2023-01-29T16:25:26;17.17;;;14.60;;
48205;SDS011;33995;48.202;16.260;2023-01-29T16:28:16;22.50;;;18.60;;
48205;SDS011;33995;48.202;16.260;2023-01-29T16:30:45;23.67;;;18.17;;
48205;SDS011;33995;48.202;16.260;2023-01-29T16:33:14;22.70;;;19.03;;
48205;SDS011;33995;48.202;16.260;2023-01-29T16:35:50;21.83;;;18.37;;
48205;SDS011;33995;48.202;16.260;2023-01-29T16:38:23;19.10;;;16.80;;
48205;SDS011;33995;48.202;16.260;2023-01-29T16:43:58;24.43;;;20.20;;
48205;SDS011;33995;48.202;16.260;2023-01-29T16:52:19;30.10;;;24.10;;
48205;SDS011;33995;48.202;16.260;2023-01-29T16:54:53;22.20;;;18.47;;
48205;SDS011;33995;48.202;16.260;2023-01-29T16:57:28;21.00;;;18.80;;
48205;SDS011;33995;48.202;16.260;2023-01-29T17:00:00;19.33;;;17.07;;
48205;SDS011;33995;48.202;16.260;2023-01-29T17:02:35;18.93;;;16.93;;
48205;SDS011;33995;48.202;16.260;2023-01-29T17:05:07;17.83;;;15.67;;
48205;SDS011;33995;48.202;16.260;2023-01-29T17:07:43;19.90;;;17.80;;
48205;SDS011;33995;48.202;16.260;2023-01-29T17:10:17;23.43;;;20.20;;
48205;SDS011;33995;48.202;16.260;2023-01-29T17:12:50;21.03;;;17.07;;
48205;SDS011;33995;48.202;16.260;2023-01-29T17:18:02;21.50;;;19.17;;
48205;SDS011;33995;48.202;16.260;2023-01-29T17:20:38;22.40;;;19.20;;
48205;SDS011;33995;48.202;16.260;2023-01-29T17:23:07;19.73;;;16.70;;
48205;SDS011;33995;48.202;16.260;2023-01-29T17:25:35;16.60;;;14.40;;
48205;SDS011;33995;48.202;16.260;2023-01-29T17:28:03;16.33;;;14.07;;
48205;SDS011;33995;48.202;16.260;2023-01-29T17:30:32;16.93;;;14.47;;
48205;SDS011;33995;48.202;16.260;2023-01-29T17:33:14;15.83;;;14.13;;
48205;SDS011;33995;48.202;16.260;2023-01-29T17:35:46;15.93;;;13.63;;
48205;SDS011;33995;48.202;16.260;2023-01-29T17:38:15;17.67;;;14.87;;
48205;SDS011;33995;48.202;16.260;2023-01-29T17:43:23;18.87;;;15.87;;
48205;SDS011;33995;48.202;16.260;2023-01-29T17:45:51;19.60;;;16.63;;
48205;SDS011;33995;48.202;16.260;2023-01-29T17:48:23;22.67;;;17.63;;
48205;SDS011;33995;48.202;16.260;2023-01-29T17:50:55;21.13;;;18.00;;
48205;SDS011;33995;48.202;16.260;2023-01-29T17:53:26;22.63;;;18.87;;
48205;SDS011;33995;48.202;16.260;2023-01-29T17:56:22;23.23;;;17.90;;